createdAt,value
2022-09-03T00:00:57.051Z,1.30
2022-09-03T00:03:41.949Z,1.17
2022-09-03T00:06:27.025Z,1.30
2022-09-03T00:09:30.142Z,1.33
2022-09-03T00:12:09.155Z,1.23
2022-09-03T00:14:58.171Z,1.20
2022-09-03T00:17:30.865Z,1.42
2022-09-03T00:20:03.219Z,1.30
2022-09-03T00:22:34.497Z,1.20
2022-09-03T00:25:05.588Z,1.20
2022-09-03T00:27:37.344Z,1.38
2022-09-03T00:30:14.723Z,1.30
2022-09-03T00:33:03.012Z,1.50
2022-09-03T00:35:41.152Z,1.15
2022-09-03T00:38:09.316Z,1.10
2022-09-03T00:40:39.070Z,1.30
2022-09-03T00:43:22.265Z,1.40
2022-09-03T00:46:18.393Z,1.52
2022-09-03T00:49:21.961Z,1.23
2022-09-03T00:52:18.974Z,1.67
2022-09-03T00:55:05.024Z,1.35
2022-09-03T00:58:03.797Z,1.40
2022-09-03T01:00:30.642Z,1.38
2022-09-03T01:03:11.614Z,1.48
2022-09-03T01:06:01.805Z,1.48
2022-09-03T01:08:41.422Z,1.30
2022-09-03T01:11:10.776Z,1.30
2022-09-03T01:13:44.734Z,1.52
2022-09-03T01:16:23.594Z,1.30
2022-09-03T01:19:28.946Z,1.52
2022-09-03T01:22:20.212Z,1.30
2022-09-03T01:25:15.302Z,1.30
2022-09-03T01:27:58.583Z,1.50
2022-09-03T01:30:25.834Z,1.30
2022-09-03T01:33:26.840Z,1.60
2022-09-03T01:36:23.325Z,1.52
2022-09-03T01:39:01.816Z,1.52
2022-09-03T01:42:05.224Z,1.20
2022-09-03T01:45:10.142Z,1.40
2022-09-03T01:48:04.280Z,1.80
2022-09-03T01:50:46.045Z,1.50
2022-09-03T01:53:18.835Z,1.60
2022-09-03T01:56:22.489Z,1.80
2022-09-03T01:59:11.805Z,1.60
2022-09-03T02:02:07.741Z,1.70
2022-09-03T02:04:34.991Z,1.75
2022-09-03T02:07:03.288Z,1.67
2022-09-03T02:09:32.675Z,1.50
2022-09-03T02:12:14.469Z,1.60
2022-09-03T02:14:41.392Z,1.65
2022-09-03T02:17:09.138Z,1.23
2022-09-03T02:19:37.683Z,1.40
2022-09-03T02:22:05.253Z,1.60
2022-09-03T02:24:32.881Z,1.50
2022-09-03T02:26:59.740Z,1.65
2022-09-03T02:29:26.587Z,1.70
2022-09-03T02:31:54.936Z,1.63
2022-09-03T02:34:21.810Z,1.52
2022-09-03T02:36:48.771Z,1.70
2022-09-03T02:39:16.820Z,1.50
2022-09-03T02:41:44.656Z,1.48
2022-09-03T02:44:14.493Z,1.80
2022-09-03T02:46:44.652Z,1.50
2022-09-03T02:49:11.884Z,1.77
2022-09-03T02:51:42.541Z,1.77
2022-09-03T02:54:10.764Z,2.05
2022-09-03T02:56:38.387Z,1.70
2022-09-03T02:59:07.712Z,1.65
2022-09-03T03:01:35.553Z,1.85
2022-09-03T03:04:02.621Z,1.90
2022-09-03T03:06:29.498Z,1.70
2022-09-03T03:08:57.698Z,2.20
2022-09-03T03:11:25.810Z,1.83
2022-09-03T03:13:52.731Z,1.80
2022-09-03T03:16:19.874Z,1.98
2022-09-03T03:18:46.735Z,1.80
2022-09-03T03:21:16.528Z,1.67
2022-09-03T03:23:43.918Z,1.70
2022-09-03T03:26:13.720Z,1.70
2022-09-03T03:28:42.567Z,1.70
2022-09-03T03:31:20.021Z,1.80
2022-09-03T03:33:58.077Z,1.80
2022-09-03T03:36:27.567Z,1.90
2022-09-03T03:38:56.623Z,1.90
2022-09-03T03:41:25.682Z,1.70
2022-09-03T03:43:56.514Z,1.77
2022-09-03T03:46:24.999Z,2.00
2022-09-03T03:48:52.669Z,1.80
2022-09-03T03:51:20.066Z,1.85
2022-09-03T03:53:47.150Z,1.90
2022-09-03T03:56:16.492Z,1.80
2022-09-03T03:58:44.067Z,1.73
2022-09-03T04:01:20.052Z,1.73
2022-09-03T04:03:47.246Z,1.83
2022-09-03T04:06:17.318Z,2.22
2022-09-03T04:08:46.052Z,1.55
2022-09-03T04:11:16.601Z,1.75
2022-09-03T04:13:45.173Z,1.85
2022-09-03T04:16:18.634Z,1.67
2022-09-03T04:18:46.194Z,1.90
2022-09-03T04:21:31.794Z,1.70
2022-09-03T04:23:59.034Z,1.45
2022-09-03T04:26:31.493Z,2.08
2022-09-03T04:29:01.097Z,1.60
2022-09-03T04:31:28.580Z,1.85
2022-09-03T04:33:55.462Z,1.65
2022-09-03T04:36:25.143Z,1.65
2022-09-03T04:38:54.601Z,1.60
2022-09-03T04:41:27.702Z,1.65
2022-09-03T04:43:56.918Z,1.95
2022-09-03T04:46:27.154Z,1.90
2022-09-03T04:48:55.134Z,1.60
2022-09-03T04:51:27.913Z,1.92
2022-09-03T04:54:00.566Z,1.60
2022-09-03T04:56:30.881Z,2.00
2022-09-03T04:59:03.954Z,1.60
2022-09-03T05:01:33.598Z,1.60
2022-09-03T05:04:01.215Z,1.50
2022-09-03T05:06:30.120Z,1.77
2022-09-03T05:08:57.479Z,1.80
2022-09-03T05:11:25.924Z,2.15
2022-09-03T05:13:56.278Z,1.55
2022-09-03T05:16:24.550Z,1.55
2022-09-03T05:18:56.603Z,1.67
2022-09-03T05:21:24.511Z,1.70
2022-09-03T05:23:52.925Z,1.70
2022-09-03T05:26:25.301Z,1.50
2022-09-03T05:29:00.876Z,1.55
2022-09-03T05:31:31.454Z,1.80
2022-09-03T05:34:00.641Z,1.90
2022-09-03T05:36:30.093Z,1.50
2022-09-03T05:38:58.711Z,1.75
2022-09-03T05:41:26.558Z,1.70
2022-09-03T05:43:59.769Z,1.40
2022-09-03T05:46:32.071Z,1.48
2022-09-03T05:49:05.408Z,1.58
2022-09-03T05:51:33.917Z,1.58
2022-09-03T05:54:01.034Z,1.60
2022-09-03T05:56:29.368Z,1.60
2022-09-03T05:59:02.859Z,1.40
2022-09-03T06:01:34.855Z,1.83
2022-09-03T06:04:04.103Z,1.45
2022-09-03T06:06:32.842Z,1.52
2022-09-03T06:09:02.629Z,1.60
2022-09-03T06:11:30.748Z,1.65
2022-09-03T06:14:00.980Z,1.52
2022-09-03T06:16:31.836Z,1.30
2022-09-03T06:19:00.145Z,1.50
2022-09-03T06:21:27.630Z,1.52
2022-09-03T06:23:56.946Z,1.70
2022-09-03T06:26:28.185Z,1.77
2022-09-03T06:28:56.280Z,1.73
2022-09-03T06:31:24.099Z,1.50
2022-09-03T06:33:51.929Z,1.33
2022-09-03T06:36:20.933Z,1.60
2022-09-03T06:38:47.898Z,1.50
2022-09-03T06:41:21.053Z,1.60
2022-09-03T06:43:49.287Z,1.35
2022-09-03T06:46:19.162Z,1.50
2022-09-03T06:48:47.181Z,1.85
2022-09-03T06:51:22.890Z,1.30
2022-09-03T06:56:25.983Z,1.58
2022-09-03T06:59:09.717Z,1.45
2022-09-03T07:01:40.807Z,1.60
2022-09-03T07:04:12.909Z,1.40
2022-09-03T07:06:42.373Z,1.50
2022-09-03T07:09:11.106Z,1.60
2022-09-03T07:11:46.583Z,1.40
2022-09-03T07:14:14.748Z,1.42
2022-09-03T07:16:44.399Z,1.45
2022-09-03T07:19:13.348Z,1.35
2022-09-03T07:21:45.251Z,1.70
2022-09-03T07:24:16.173Z,1.50
2022-09-03T07:26:49.708Z,1.40
2022-09-03T07:29:20.319Z,1.90
2022-09-03T07:31:51.744Z,1.50
2022-09-03T07:34:20.374Z,1.58
2022-09-03T07:36:51.140Z,1.70
2022-09-03T07:39:19.018Z,1.67
2022-09-03T07:41:46.875Z,1.63
2022-09-03T07:44:16.176Z,1.67
2022-09-03T07:46:45.389Z,1.60
2022-09-03T07:49:12.545Z,1.75
2022-09-03T07:51:39.829Z,1.42
2022-09-03T07:54:10.000Z,1.50
2022-09-03T07:56:38.345Z,1.67
2022-09-03T07:59:05.537Z,1.60
2022-09-03T08:01:33.517Z,1.80
2022-09-03T08:04:02.570Z,2.20
2022-09-03T08:06:31.240Z,1.20
2022-09-03T08:09:11.349Z,1.58
2022-09-03T08:11:40.913Z,1.27
2022-09-03T08:14:10.612Z,1.33
2022-09-03T08:16:41.859Z,1.35
2022-09-03T08:19:08.890Z,1.52
2022-09-03T08:21:35.984Z,1.25
2022-09-03T08:24:03.469Z,1.70
2022-09-03T08:26:32.762Z,1.30
2022-09-03T08:29:00.149Z,1.83
2022-09-03T08:31:29.227Z,1.30
2022-09-03T08:33:58.025Z,1.60
2022-09-03T08:36:30.113Z,1.48
2022-09-03T08:38:59.486Z,1.20
2022-09-03T08:41:36.453Z,1.40
2022-09-03T08:44:15.277Z,1.13
2022-09-03T08:46:47.753Z,1.20
2022-09-03T08:49:19.351Z,0.88
2022-09-03T08:51:49.006Z,1.52
2022-09-03T08:54:17.955Z,1.35
2022-09-03T08:56:46.150Z,1.20
2022-09-03T08:59:13.035Z,1.20
2022-09-03T09:02:12.433Z,1.63
2022-09-03T09:05:10.013Z,1.45
2022-09-03T09:08:19.304Z,1.20
2022-09-03T09:10:47.899Z,1.23
2022-09-03T09:13:20.648Z,1.20
2022-09-03T09:16:15.259Z,1.35
2022-09-03T09:19:27.383Z,1.40
2022-09-03T09:22:00.951Z,1.27
2022-09-03T09:24:45.046Z,1.45
2022-09-03T09:27:17.246Z,1.40
2022-09-03T09:29:48.323Z,1.15
2022-09-03T09:32:17.914Z,1.10
2022-09-03T09:34:49.875Z,1.35
2022-09-03T09:37:19.043Z,1.33
2022-09-03T09:40:00.869Z,1.30
2022-09-03T09:42:31.053Z,1.48
2022-09-03T09:45:08.603Z,1.58
2022-09-03T09:47:39.446Z,1.40
2022-09-03T09:50:24.855Z,1.30
2022-09-03T09:53:08.845Z,2.38
2022-09-03T09:55:38.997Z,1.30
2022-09-03T09:58:14.409Z,1.33
2022-09-03T10:00:42.830Z,2.10
2022-09-03T10:03:13.970Z,1.40
2022-09-03T10:05:41.426Z,1.55
2022-09-03T10:08:22.112Z,1.52
2022-09-03T10:10:50.946Z,1.60
2022-09-03T10:13:21.469Z,1.60
2022-09-03T10:16:15.585Z,1.30
2022-09-03T10:18:49.167Z,2.03
2022-09-03T10:21:29.282Z,1.27
2022-09-03T10:24:01.649Z,1.58
2022-09-03T10:26:32.289Z,1.27
2022-09-03T10:29:05.843Z,1.70
2022-09-03T10:31:36.711Z,1.80
2022-09-03T10:34:10.549Z,2.00
2022-09-03T10:36:43.787Z,1.20
2022-09-03T10:39:42.824Z,1.50
2022-09-03T10:42:31.522Z,1.20
2022-09-03T10:45:04.122Z,1.33
2022-09-03T10:48:05.080Z,1.50
2022-09-03T10:50:58.566Z,1.65
2022-09-03T10:53:43.782Z,1.30
2022-09-03T10:56:25.037Z,1.70
2022-09-03T10:59:20.777Z,1.40
2022-09-03T11:02:02.638Z,1.33
2022-09-03T11:04:56.238Z,1.30
2022-09-03T11:07:28.922Z,1.35
2022-09-03T11:10:12.049Z,1.38
2022-09-03T11:12:44.767Z,1.40
2022-09-03T11:15:38.072Z,1.25
2022-09-03T11:18:11.820Z,1.33
2022-09-03T11:20:40.328Z,1.25
2022-09-03T11:23:10.279Z,1.30
2022-09-03T11:25:51.249Z,1.88
2022-09-03T11:29:04.205Z,1.25
2022-09-03T11:31:33.787Z,1.40
2022-09-03T11:34:17.832Z,1.30
2022-09-03T11:36:50.660Z,1.70
2022-09-03T11:39:32.641Z,1.35
2022-09-03T11:42:07.115Z,1.50
2022-09-03T11:44:51.137Z,1.33
2022-09-03T11:47:40.130Z,1.10
2022-09-03T11:50:21.103Z,1.20
2022-09-03T11:52:52.018Z,1.15
2022-09-03T11:55:55.661Z,1.10
2022-09-03T11:58:29.112Z,1.20
2022-09-03T12:00:56.839Z,1.48
2022-09-03T12:03:29.028Z,1.30
2022-09-03T12:06:23.149Z,1.20
2022-09-03T12:09:08.181Z,1.20
2022-09-03T12:11:53.902Z,1.20
2022-09-03T12:14:44.750Z,1.15
2022-09-03T12:17:14.806Z,1.00
2022-09-03T12:19:51.033Z,1.13
2022-09-03T12:22:20.109Z,1.30
2022-09-03T12:24:48.178Z,1.10
2022-09-03T12:27:22.733Z,1.20
2022-09-03T12:30:00.906Z,1.00
2022-09-03T12:32:40.262Z,1.20
2022-09-03T12:35:12.036Z,1.30
2022-09-03T12:40:30.082Z,1.10
2022-09-03T12:46:17.276Z,1.17
2022-09-03T12:51:52.518Z,1.20
2022-09-03T12:54:22.979Z,1.30
2022-09-03T12:56:56.890Z,1.33
2022-09-03T12:59:26.619Z,1.20
2022-09-03T13:02:00.038Z,1.13
2022-09-03T13:04:32.681Z,1.35
2022-09-03T13:07:33.513Z,1.27
2022-09-03T13:10:07.849Z,1.20
2022-09-03T13:12:52.432Z,1.20
2022-09-03T13:15:24.778Z,1.20
2022-09-03T13:18:08.227Z,1.20
2022-09-03T13:21:03.244Z,1.25
2022-09-03T13:24:02.430Z,1.23
2022-09-03T13:27:01.743Z,1.50
2022-09-03T13:29:28.532Z,1.05
2022-09-03T13:32:19.632Z,1.35
2022-09-03T13:34:53.982Z,1.05
2022-09-03T13:37:38.497Z,1.20
2022-09-03T13:40:15.928Z,1.20
2022-09-03T13:42:53.493Z,1.58
2022-09-03T13:45:38.929Z,1.10
2022-09-03T13:48:44.824Z,1.27
2022-09-03T13:51:22.560Z,1.00
2022-09-03T13:54:04.463Z,1.30
2022-09-03T13:56:50.373Z,1.20
2022-09-03T13:59:33.152Z,1.35
2022-09-03T14:02:27.902Z,1.10
2022-09-03T14:05:01.736Z,1.13
2022-09-03T14:07:44.826Z,1.10
2022-09-03T14:10:23.123Z,1.30
2022-09-03T14:13:06.027Z,1.20
2022-09-03T14:15:50.210Z,1.00
2022-09-03T14:18:48.475Z,1.20
2022-09-03T14:21:30.728Z,1.23
2022-09-03T14:24:14.334Z,1.17
2022-09-03T14:26:51.973Z,1.10
2022-09-03T14:29:24.584Z,1.13
2022-09-03T14:32:24.534Z,1.20
2022-09-03T14:35:18.694Z,1.08
2022-09-03T14:38:16.326Z,1.35
2022-09-03T14:41:06.864Z,1.00
2022-09-03T14:43:58.580Z,1.35
2022-09-03T14:46:32.721Z,1.15
2022-09-03T14:49:23.997Z,1.25
2022-09-03T14:52:18.499Z,1.20
2022-09-03T14:55:10.216Z,1.40
2022-09-03T14:58:18.865Z,1.35
2022-09-03T15:01:11.384Z,1.50
2022-09-03T15:04:09.679Z,2.15
2022-09-03T15:06:50.407Z,1.20
2022-09-03T15:09:47.354Z,1.20
2022-09-03T15:12:14.180Z,1.00
2022-09-03T15:14:55.383Z,1.10
2022-09-03T15:17:31.390Z,1.70
2022-09-03T15:20:15.925Z,1.17
2022-09-03T15:23:13.318Z,2.40
2022-09-03T15:25:50.450Z,1.33
2022-09-03T15:28:22.980Z,1.63
2022-09-03T15:31:09.488Z,1.20
2022-09-03T15:34:15.362Z,1.20
2022-09-03T15:36:49.135Z,1.30
2022-09-03T15:39:27.520Z,1.35
2022-09-03T15:42:01.548Z,1.20
2022-09-03T15:44:37.668Z,1.70
2022-09-03T15:47:14.202Z,1.25
2022-09-03T15:50:02.414Z,1.05
2022-09-03T15:53:13.640Z,1.25
2022-09-03T15:55:43.462Z,1.25
2022-09-03T15:58:28.740Z,1.20
2022-09-03T16:01:16.559Z,1.10
2022-09-03T16:04:01.155Z,1.50
2022-09-03T16:06:41.688Z,1.35
2022-09-03T16:09:25.764Z,1.27
2022-09-03T16:12:16.987Z,1.20
2022-09-03T16:15:06.017Z,1.38
2022-09-03T16:17:36.238Z,1.25
2022-09-03T16:20:16.772Z,1.08
2022-09-03T16:23:11.109Z,1.30
2022-09-03T16:26:04.908Z,1.30
2022-09-03T16:28:45.246Z,1.27
2022-09-03T16:31:19.396Z,1.20
2022-09-03T16:34:09.721Z,1.10
2022-09-03T16:36:47.478Z,1.20
2022-09-03T16:39:19.282Z,0.90
2022-09-03T16:42:06.385Z,1.60
2022-09-03T16:44:58.215Z,1.17
2022-09-03T16:47:36.869Z,1.08
2022-09-03T16:50:28.831Z,1.13
2022-09-03T16:53:29.246Z,1.20
2022-09-03T16:56:34.230Z,1.20
2022-09-03T16:59:26.437Z,1.38
2022-09-03T17:02:01.608Z,1.10
2022-09-03T17:04:48.505Z,1.30
2022-09-03T17:07:36.609Z,1.42
2022-09-03T17:10:28.599Z,1.10
2022-09-03T17:13:10.756Z,1.33
2022-09-03T17:15:49.686Z,1.10
2022-09-03T17:18:30.943Z,1.30
2022-09-03T17:21:26.415Z,1.20
2022-09-03T17:24:20.339Z,1.55
2022-09-03T17:27:04.444Z,1.42
2022-09-03T17:29:35.125Z,1.15
2022-09-03T17:32:21.122Z,1.30
2022-09-03T17:35:20.435Z,1.70
2022-09-03T17:38:16.257Z,1.50
2022-09-03T17:41:01.857Z,1.15
2022-09-03T17:43:41.076Z,1.23
2022-09-03T17:46:26.581Z,1.35
2022-09-03T17:48:55.320Z,1.63
2022-09-03T17:51:22.114Z,1.20
2022-09-03T17:53:52.030Z,1.25
2022-09-03T17:56:35.555Z,1.13
2022-09-03T17:59:10.616Z,1.33
2022-09-03T18:01:45.772Z,1.42
2022-09-03T18:04:29.787Z,1.30
2022-09-03T18:07:23.578Z,1.13
2022-09-03T18:10:07.426Z,1.63
2022-09-03T18:12:38.354Z,1.40
2022-09-03T18:15:12.198Z,1.30
2022-09-03T18:17:58.822Z,1.30
2022-09-03T18:20:58.860Z,1.20
2022-09-03T18:24:40.258Z,1.40
2022-09-03T18:27:34.641Z,1.15
2022-09-03T18:30:26.990Z,1.42
2022-09-03T18:33:12.927Z,1.45
2022-09-03T18:35:58.316Z,1.20
2022-09-03T18:38:47.099Z,1.13
2022-09-03T18:41:38.719Z,1.25
2022-09-03T18:44:35.754Z,1.00
2022-09-03T18:51:07.717Z,1.40
2022-09-03T18:54:07.684Z,1.30
2022-09-03T18:57:06.827Z,1.10
2022-09-03T19:00:13.398Z,1.40
2022-09-03T19:03:17.612Z,1.30
2022-09-03T19:06:21.322Z,1.65
2022-09-03T19:09:18.991Z,1.30
2022-09-03T19:12:36.669Z,1.30
2022-09-03T19:15:52.962Z,1.40
2022-09-03T19:19:14.191Z,1.63
2022-09-03T19:22:11.170Z,1.20
2022-09-03T19:24:56.328Z,1.55
2022-09-03T19:27:59.259Z,1.38
2022-09-03T19:30:50.456Z,1.42
2022-09-03T19:34:10.117Z,1.50
2022-09-03T19:37:06.137Z,1.30
2022-09-03T19:40:19.599Z,1.48
2022-09-03T19:43:26.801Z,1.50
2022-09-03T19:46:30.895Z,1.60
2022-09-03T19:49:35.415Z,1.50
2022-09-03T19:52:21.402Z,1.60
2022-09-03T19:55:11.603Z,1.60
2022-09-03T19:57:59.365Z,1.65
2022-09-03T20:00:45.885Z,1.70
2022-09-03T20:03:33.113Z,1.67
2022-09-03T20:06:21.989Z,2.00
2022-09-03T20:09:09.854Z,2.17
2022-09-03T20:11:39.280Z,1.70
2022-09-03T20:14:14.158Z,2.13
2022-09-03T20:17:21.098Z,2.00
2022-09-03T20:20:05.912Z,1.92
2022-09-03T20:22:41.456Z,2.00
2022-09-03T20:25:27.286Z,2.20
2022-09-03T20:27:59.868Z,2.30
2022-09-03T20:31:03.206Z,1.98
2022-09-03T20:34:03.827Z,2.00
2022-09-03T20:36:36.409Z,2.00
2022-09-03T20:39:18.280Z,1.70
2022-09-03T20:42:00.584Z,1.98
2022-09-03T20:44:46.100Z,1.98
2022-09-03T20:47:36.412Z,1.85
2022-09-03T20:50:43.176Z,1.70
2022-09-03T20:53:49.515Z,2.10
2022-09-03T20:56:21.865Z,1.70
2022-09-03T20:58:59.012Z,1.75
2022-09-03T21:01:52.276Z,1.80
2022-09-03T21:04:50.017Z,1.60
2022-09-03T21:07:22.769Z,1.90
2022-09-03T21:10:15.721Z,1.70
2022-09-03T21:13:06.296Z,2.03
2022-09-03T21:16:20.165Z,1.88
2022-09-03T21:19:05.046Z,1.70
2022-09-03T21:21:43.354Z,2.20
2022-09-03T21:24:33.704Z,1.60
2022-09-03T21:27:13.230Z,1.90
2022-09-03T21:29:49.954Z,1.83
2022-09-03T21:32:23.646Z,1.90
2022-09-03T21:34:53.184Z,1.90
2022-09-03T21:37:22.587Z,1.83
2022-09-03T21:39:55.721Z,2.00
2022-09-03T21:42:59.940Z,1.80
2022-09-03T21:45:36.879Z,1.95
2022-09-03T21:48:13.670Z,2.00
2022-09-03T21:50:49.697Z,2.03
2022-09-03T21:53:38.990Z,1.85
2022-09-03T21:56:24.494Z,1.92
2022-09-03T21:58:57.574Z,2.33
2022-09-03T22:01:49.058Z,1.95
2022-09-03T22:04:16.082Z,2.17
2022-09-03T22:07:16.743Z,2.00
2022-09-03T22:10:08.325Z,2.00
2022-09-03T22:13:27.793Z,2.22
2022-09-03T22:16:25.891Z,1.88
2022-09-03T22:18:54.606Z,2.13
2022-09-03T22:21:23.611Z,2.20
2022-09-03T22:24:07.317Z,2.00
2022-09-03T22:26:49.450Z,2.20
2022-09-03T22:29:37.847Z,2.17
2022-09-03T22:32:26.589Z,1.70
2022-09-03T22:35:10.053Z,2.00
2022-09-03T22:37:55.656Z,2.05
2022-09-03T22:40:52.447Z,2.17
2022-09-03T22:43:30.215Z,1.95
2022-09-03T22:46:08.323Z,1.98
2022-09-03T22:48:54.121Z,1.95
2022-09-03T22:51:21.998Z,2.17
2022-09-03T22:54:21.584Z,1.73
2022-09-03T22:56:48.630Z,2.03
2022-09-03T22:59:25.120Z,2.05
2022-09-03T23:02:15.331Z,1.83
2022-09-03T23:05:06.227Z,1.92
2022-09-03T23:07:46.171Z,1.80
2022-09-03T23:10:23.074Z,2.03
2022-09-03T23:13:41.918Z,2.00
2022-09-03T23:16:38.846Z,2.20
2022-09-03T23:22:01.117Z,2.13
2022-09-03T23:24:52.401Z,1.80
2022-09-03T23:27:25.342Z,1.83
2022-09-03T23:30:00.286Z,1.98
2022-09-03T23:32:33.321Z,1.95
2022-09-03T23:35:06.465Z,2.38
2022-09-03T23:37:48.426Z,1.95
2022-09-03T23:40:36.812Z,2.38
2022-09-03T23:43:28.072Z,1.80
2022-09-03T23:46:36.821Z,2.17
2022-09-03T23:49:22.446Z,2.10
2022-09-03T23:51:58.642Z,2.10
2022-09-03T23:54:47.515Z,1.55
2022-09-03T23:57:24.792Z,2.22
